| Date | Time | Temp. (oF) | Dew Point (oF) | Rel. Hum. (%) | Press. (in.) | Wind Dir. | Wind Speed (mph) | Hourly Rainfall (in.) |
|
|---|---|---|---|---|---|---|---|---|---|
| 1 | 01/14 | 00:00 | 18 | 9 | 68 | 30.52 | NE | 4 | 0.00 |
| 2 | 01/13 | 23:00 | 18 | 9 | 69 | 30.54 | E | 3 | 0.00 |
| 3 | 01/13 | 22:00 | 17 | 9 | 71 | 30.56 | ENE | 0 | 0.00 |
| 4 | 01/13 | 21:00 | 18 | 9 | 68 | 30.57 | NNE | 0 | 0.00 |
| 5 | 01/13 | 20:00 | 20 | 8 | 60 | 30.57 | NE | 0 | 0.00 |
| 6 | 01/13 | 19:00 | 21 | 8 | 58 | 30.56 | NE | 5 | 0.00 |
| 7 | 01/13 | 18:00 | 22 | 7 | 54 | 30.56 | NNE | 6 | 0.00 |
| 8 | 01/13 | 17:00 | 23 | 7 | 50 | 30.53 | NE | 7 | 0.00 |
| 9 | 01/13 | 16:00 | 25 | 7 | 47 | 30.53 | N | 4 | 0.00 |
| 10 | 01/13 | 15:00 | 25 | 7 | 47 | 30.52 | NNE | 9 | 0.00 |
| 11 | 01/13 | 14:00 | 25 | 8 | 48 | 30.53 | NNE | 7 | 0.00 |
| 12 | 01/13 | 13:00 | 24 | 8 | 52 | 30.54 | NNE | 12 | 0.00 |
| 13 | 01/13 | 12:00 | 23 | 10 | 57 | 30.56 | NNE | 8 | 0.00 |
| 14 | 01/13 | 11:00 | 22 | 9 | 58 | 30.59 | NNE | 6 | 0.00 |
| 15 | 01/13 | 10:00 | 21 | 8 | 57 | 30.60 | N | 8 | 0.00 |
| 16 | 01/13 | 09:00 | 21 | 9 | 61 | 30.57 | NE | 7 | 0.00 |
| 17 | 01/13 | 08:00 | 21 | 11 | 65 | 30.54 | NNE | 10 | 0.00 |
| 18 | 01/13 | 07:00 | 23 | 14 | 68 | 30.50 | N | 17 | 0.00 |
| 19 | 01/13 | 06:00 | 25 | 15 | 68 | 30.47 | N | 7 | 0.00 |
| 20 | 01/13 | 05:00 | 28 | 19 | 69 | 30.42 | N | 10 | 0.00 |
| 21 | 01/13 | 04:00 | 30 | 21 | 70 | 30.39 | NNE | 12 | 0.00 |
| 22 | 01/13 | 03:00 | 31 | 24 | 78 | 30.35 | NE | 10 | 0.00 |
| 23 | 01/13 | 02:00 | 33 | 28 | 83 | 30.32 | NNE | 8 | 0.00 |
| 24 | 01/13 | 01:00 | 33 | 27 | 80 | 30.28 | NNE | 8 | 0.00 |